AirNav   Pilot Hours Calculator
 
 1232 users online  

5TA1 Charping Airport
Temple, Texas, USA

GOING TO TEMPLE?


FAA INFORMATION EFFECTIVE 02 DECEMBER 2021

Location

FAA Identifier: 5TA1
Lat/Long: 31-11-36.6300N 097-24-26.0310W
31-11.610500N 097-24.433850W
31.1935083,-97.4072308
(estimated)
Elevation: 683 ft. / 208 m (estimated)
Variation: 07E (1985)
From city: 6 miles N of TEMPLE, TX
Time zone: UTC -6 (UTC -5 during Daylight Saving Time)
Zip code: 76557

Airport Operations

Airport use: Private use. Permission required prior to landing
Activation date: 12/1980
Control tower: no
ARTCC: FORT WORTH CENTER
FSS: SAN ANGELO FLIGHT SERVICE STATION
Attendance: UNATNDD
Wind indicator: yes
Segmented circle: no

Airport Communications

WX AWOS-3PT at TPL (2.5 nm S): 134.975 (254-774-8337)
WX AWOS-3PT at ILE (16 nm SW): 128.575 (254-690-3131)
WX AWOS-3PT at PWG (18 nm N): 135.525 (254-848-4581)

Nearby radio navigation aids

VOR radial/distance  VOR name  Freq  Var
GRKr058/23.0GRAY VOR/DME111.8007E
ACTr185/29.0WACO VORTAC115.3009E
AGJr084/37.7GOOCH SPRINGS VORTAC112.5005E

 
NDB name  Hdg/Dist  Freq  Var  ID
ROBINSON220/25.440003EROB .-. --- -...

Airport Services

Runway Information

Runway 1/19

Dimensions: 2200 x 60 ft. / 671 x 18 m
Surface: turf
RUNWAY 1  RUNWAY 19
Traffic pattern: leftleft
Obstructions: 25 ft. plines, marked, 200 ft. from runwaynone

Airport Ownership and Management from official FAA records

Ownership: Privately-owned
Owner: SANDRA CHARPING
PO BOX 1229
TEMPLE, TX 76501
Phone 817-939-8886
Manager: JIMMY GLOVER
65 RUNWAY LANE
TEMPLE, TX 76504
Phone 254-223-0979
JIMMY.MEDIC.GLOVER@GMAIL.COM DAVID CARTER DCARTER204040@GMAIL.COM

Airport Operational Statistics

Aircraft based on the field: 9
Single engine airplanes: 5
Ultralights: 4
    

Additional Remarks

FOR CD CTC FORT WORTH ARTCC AT 817-858-7584.

Instrument Procedures

There are no published instrument procedures at 5TA1.

Some nearby airports with instrument procedures:

KTPL - Draughon-Miller Central Texas Regional Airport (2 nm S)
KILE - Skylark Field Airport (16 nm SW)
KHLR - Hood AHP Airport (16 nm W)
KPWG - Mc Gregor Executive Airport (18 nm N)
KGRK - Robert Gray Army Airfield (23 nm W)
 
Loc | Ops | Rwys | IFR | FBO | Links
Com | Nav | Svcs | Stats | Notes

City of Fort Worth
 
Area around 5TA1 (Charping Airport)
 
Road maps at: MapQuest Bing Google
 
Aerial photo
WARNING: Photo may not be current or correct
Aerial photo of 5TA1 (Charping Airport)
Photo by Rayford
Taken in December 2019
looking northeast.

Do you have a better or more recent aerial photo of Charping Airport that you would like to share? If so, please send us your photo.

 
Sectional chart

 
Airport distance calculator
Flying to Charping Airport? Find the distance to fly.

From to 5TA1

Sunrise and sunset
Times for 03-Dec-2021
 Local
(UTC-6)
 Zulu
(UTC)
Morning civil twilight06:4712:47
Sunrise07:1313:13
Sunset17:2623:26
Evening civil twilight17:5223:52

Current date and time
Zulu (UTC)  03-Dec-2021 22:04:40
Local (UTC-6)  03-Dec-2021 16:04:40
 
METAR
KTPL 
4nm S 
032151Z AUTO 17013G18KT 10SM FEW018 SCT100 23/19 A2999 RMK AO2 SLP147 T02330189
KILE 
15nm SW 
032156Z AUTO 17014KT 10SM CLR 24/18 A2998 RMK AO2 SLP143 T02390178
KHLR 
16nm W 
032158Z AUTO 16011KT 10SM CLR 24/18 A2998 RMK AO2 SLP145 T02440179
KPWG 
17nm N 
032156Z AUTO 16012KT 10SM CLR 23/19 A2998 RMK AO2 RAE00 SLP146 P0000 T02280194
TAF
KGRK 
23nm W 
031700Z 0317/0422 18009KT 9999 VCSH FEW007 SCT100 BKN150 QNH3000INS TEMPO 0317/0320 22012G18KT 9999 -RA BKN100 BECMG 0320/0321 19012KT 9999 NSW FEW100 QNH2999INS BECMG 0409/0410 VRB06KT 4800 BR OVC004 QNH3002INS TEMPO 0410/0415 0800 FG BECMG 0414/0415 VRB06KT 9999 NSW OVC002 QNH3008INS BECMG 0418/0419 16009KT 9999 SCT150 QNH3005INS TX24/0321Z TN16/0412Z
KACT 
27nm N 
031734Z 0318/0418 19011KT P6SM VCSH BKN100 FM032200 17010KT P6SM BKN100 FM041200 18005KT 6SM BR BKN012 TEMPO 0412/0416 4SM BR BKN007 FM041700 20008KT P6SM BKN250
NOTAMs
Click for the latest NOTAMs
NOTAMs are issued by the DoD/FAA and will open in a separate window not controlled by AirNav.

 

 
 

Would you like to see your business listed on this page?

 If your business provides an interesting product or service to pilots, flight crews, aircraft, or users of the Charping Airport, you should consider listing it here.  To start the listing process, click on the button below
 
Add a business
 

Other Pages about Charping Airport

Update a link
 
Copyright © AirNav, LLC. All rights reserved. Privacy Policy  Contact